sensor_id;sensor_type;location;lat;lon;timestamp;pressure;altitude;pressure_sealevel;temperature;humidity
65614;BME280;52283;49.292;10.572;2023-05-19T00:00:54;97075.19;;;10.01;83.93
65614;BME280;52283;49.292;10.572;2023-05-19T00:03:21;97080.97;;;9.97;83.06
65614;BME280;52283;49.292;10.572;2023-05-19T00:05:48;97079.75;;;9.54;85.97
65614;BME280;52283;49.292;10.572;2023-05-19T00:08:18;97077.84;;;9.60;86.01
65614;BME280;52283;49.292;10.572;2023-05-19T00:10:46;97076.75;;;9.72;86.96
65614;BME280;52283;49.292;10.572;2023-05-19T00:13:13;97073.47;;;9.74;86.49
65614;BME280;52283;49.292;10.572;2023-05-19T00:15:40;97070.88;;;10.00;83.79
65614;BME280;52283;49.292;10.572;2023-05-19T00:18:07;97072.16;;;9.55;85.90
65614;BME280;52283;49.292;10.572;2023-05-19T00:20:34;97075.69;;;10.20;85.31
65614;BME280;52283;49.292;10.572;2023-05-19T00:23:01;97081.13;;;9.59;85.63
65614;BME280;52283;49.292;10.572;2023-05-19T00:25:28;97075.72;;;9.40;87.22
65614;BME280;52283;49.292;10.572;2023-05-19T00:27:56;97071.69;;;9.41;87.74
65614;BME280;52283;49.292;10.572;2023-05-19T00:30:23;97080.72;;;9.36;87.89
65614;BME280;52283;49.292;10.572;2023-05-19T00:32:50;97078.22;;;9.38;87.57
65614;BME280;52283;49.292;10.572;2023-05-19T00:35:16;97068.03;;;9.50;87.26
65614;BME280;52283;49.292;10.572;2023-05-19T00:37:43;97067.16;;;9.44;85.96
65614;BME280;52283;49.292;10.572;2023-05-19T00:40:09;97074.47;;;9.41;88.29
65614;BME280;52283;49.292;10.572;2023-05-19T00:42:37;97071.13;;;9.37;87.53
65614;BME280;52283;49.292;10.572;2023-05-19T00:45:06;97068.63;;;9.39;87.78
65614;BME280;52283;49.292;10.572;2023-05-19T00:47:32;97058.56;;;9.77;84.80
65614;BME280;52283;49.292;10.572;2023-05-19T00:49:59;97066.28;;;9.67;85.88
65614;BME280;52283;49.292;10.572;2023-05-19T00:52:26;97059.38;;;9.48;86.10
65614;BME280;52283;49.292;10.572;2023-05-19T00:54:54;97058.50;;;9.57;86.26
65614;BME280;52283;49.292;10.572;2023-05-19T00:57:21;97052.34;;;9.53;85.56
65614;BME280;52283;49.292;10.572;2023-05-19T00:59:47;97054.19;;;9.41;87.69
65614;BME280;52283;49.292;10.572;2023-05-19T01:02:15;97053.41;;;9.40;86.17
65614;BME280;52283;49.292;10.572;2023-05-19T01:04:42;97052.81;;;9.36;86.16
65614;BME280;52283;49.292;10.572;2023-05-19T01:07:10;97047.34;;;9.42;84.98
65614;BME280;52283;49.292;10.572;2023-05-19T01:09:37;97036.94;;;9.13;85.34
65614;BME280;52283;49.292;10.572;2023-05-19T01:12:04;97045.63;;;9.44;84.61
65614;BME280;52283;49.292;10.572;2023-05-19T01:14:30;97029.72;;;9.51;85.13
65614;BME280;52283;49.292;10.572;2023-05-19T01:17:00;97036.47;;;9.59;85.65
65614;BME280;52283;49.292;10.572;2023-05-19T01:19:46;97031.94;;;9.61;85.30
65614;BME280;52283;49.292;10.572;2023-05-19T01:22:29;97026.53;;;9.72;84.30
65614;BME280;52283;49.292;10.572;2023-05-19T01:25:25;97014.16;;;9.59;83.12
65614;BME280;52283;49.292;10.572;2023-05-19T01:28:14;97021.28;;;9.30;85.34
65614;BME280;52283;49.292;10.572;2023-05-19T01:30:50;97020.31;;;9.48;85.36
65614;BME280;52283;49.292;10.572;2023-05-19T01:33:18;97017.28;;;9.81;83.77
65614;BME280;52283;49.292;10.572;2023-05-19T01:35:46;97015.06;;;9.85;82.32
65614;BME280;52283;49.292;10.572;2023-05-19T01:38:16;97014.66;;;9.92;82.14
65614;BME280;52283;49.292;10.572;2023-05-19T01:40:43;97024.22;;;9.71;82.94
65614;BME280;52283;49.292;10.572;2023-05-19T01:43:12;97022.00;;;9.75;81.93
65614;BME280;52283;49.292;10.572;2023-05-19T01:45:39;97028.47;;;9.66;82.99
65614;BME280;52283;49.292;10.572;2023-05-19T01:48:07;97030.28;;;9.69;82.87
65614;BME280;52283;49.292;10.572;2023-05-19T01:50:33;97028.47;;;9.66;82.59
65614;BME280;52283;49.292;10.572;2023-05-19T01:53:00;97026.47;;;9.52;83.81
65614;BME280;52283;49.292;10.572;2023-05-19T01:55:27;97024.47;;;9.23;84.98
65614;BME280;52283;49.292;10.572;2023-05-19T01:58:04;97022.13;;;9.51;84.57
65614;BME280;52283;49.292;10.572;2023-05-19T02:00:44;97028.19;;;9.35;85.24
65614;BME280;52283;49.292;10.572;2023-05-19T02:03:24;97030.13;;;9.58;85.47
65614;BME280;52283;49.292;10.572;2023-05-19T02:05:55;97024.13;;;9.80;82.70
65614;BME280;52283;49.292;10.572;2023-05-19T02:08:29;97030.34;;;9.40;84.88
65614;BME280;52283;49.292;10.572;2023-05-19T02:11:02;97030.03;;;9.23;85.86
65614;BME280;52283;49.292;10.572;2023-05-19T02:13:36;97024.19;;;9.21;86.79
65614;BME280;52283;49.292;10.572;2023-05-19T02:16:04;97021.28;;;9.45;86.10
65614;BME280;52283;49.292;10.572;2023-05-19T02:18:33;97024.72;;;9.55;85.74
65614;BME280;52283;49.292;10.572;2023-05-19T02:21:00;97023.38;;;9.35;86.48
65614;BME280;52283;49.292;10.572;2023-05-19T02:23:27;97018.22;;;9.43;87.13
65614;BME280;52283;49.292;10.572;2023-05-19T02:25:53;97021.28;;;9.30;86.19
65614;BME280;52283;49.292;10.572;2023-05-19T02:28:20;97016.38;;;9.25;87.24
65614;BME280;52283;49.292;10.572;2023-05-19T02:30:46;97020.97;;;9.13;88.91
65614;BME280;52283;49.292;10.572;2023-05-19T02:33:12;97022.81;;;9.02;88.66
65614;BME280;52283;49.292;10.572;2023-05-19T02:35:40;97019.81;;;8.76;89.27
65614;BME280;52283;49.292;10.572;2023-05-19T02:38:07;97021.00;;;8.99;90.18
65614;BME280;52283;49.292;10.572;2023-05-19T02:40:33;97006.06;;;8.87;89.77
65614;BME280;52283;49.292;10.572;2023-05-19T02:43:00;97008.59;;;9.00;89.35
65614;BME280;52283;49.292;10.572;2023-05-19T02:45:27;97003.81;;;8.62;91.17
65614;BME280;52283;49.292;10.572;2023-05-19T02:47:54;97000.75;;;8.60;93.08
65614;BME280;52283;49.292;10.572;2023-05-19T02:50:21;97000.28;;;8.61;92.34
65614;BME280;52283;49.292;10.572;2023-05-19T02:52:48;97008.88;;;8.48;93.72
65614;BME280;52283;49.292;10.572;2023-05-19T02:55:16;97005.00;;;8.84;91.34
65614;BME280;52283;49.292;10.572;2023-05-19T02:57:43;97001.56;;;8.75;91.48
65614;BME280;52283;49.292;10.572;2023-05-19T03:00:10;97016.38;;;9.10;91.34
65614;BME280;52283;49.292;10.572;2023-05-19T03:02:37;96997.34;;;9.09;89.79
65614;BME280;52283;49.292;10.572;2023-05-19T03:05:04;97010.13;;;8.47;92.16
65614;BME280;52283;49.292;10.572;2023-05-19T03:07:32;97015.25;;;8.64;93.97
65614;BME280;52283;49.292;10.572;2023-05-19T03:10:00;97013.53;;;8.66;93.91
65614;BME280;52283;49.292;10.572;2023-05-19T03:12:28;97014.50;;;8.63;95.48
65614;BME280;52283;49.292;10.572;2023-05-19T03:14:54;97010.47;;;8.64;94.36
65614;BME280;52283;49.292;10.572;2023-05-19T03:17:21;97003.97;;;8.82;93.59
65614;BME280;52283;49.292;10.572;2023-05-19T03:19:47;97012.81;;;8.80;94.88
65614;BME280;52283;49.292;10.572;2023-05-19T03:22:15;97010.13;;;9.01;92.71
65614;BME280;52283;49.292;10.572;2023-05-19T03:24:42;97005.91;;;9.05;91.55
65614;BME280;52283;49.292;10.572;2023-05-19T03:27:11;97011.28;;;9.09;90.96
65614;BME280;52283;49.292;10.572;2023-05-19T03:29:37;97016.09;;;9.08;92.16
65614;BME280;52283;49.292;10.572;2023-05-19T03:32:04;97013.09;;;9.12;91.42
65614;BME280;52283;49.292;10.572;2023-05-19T03:34:30;97017.91;;;8.97;94.46
65614;BME280;52283;49.292;10.572;2023-05-19T03:36:58;97014.34;;;8.81;91.99
65614;BME280;52283;49.292;10.572;2023-05-19T03:39:24;97022.47;;;8.70;96.64
65614;BME280;52283;49.292;10.572;2023-05-19T03:41:51;97024.53;;;8.84;95.39
65614;BME280;52283;49.292;10.572;2023-05-19T03:44:18;97014.16;;;9.00;93.43
65614;BME280;52283;49.292;10.572;2023-05-19T03:46:45;97014.81;;;8.95;94.27
65614;BME280;52283;49.292;10.572;2023-05-19T03:49:11;97024.94;;;9.07;93.62
65614;BME280;52283;49.292;10.572;2023-05-19T03:51:39;97025.50;;;9.11;95.16
65614;BME280;52283;49.292;10.572;2023-05-19T03:54:05;97020.91;;;9.08;94.18
65614;BME280;52283;49.292;10.572;2023-05-19T03:56:32;97016.09;;;9.23;93.56
65614;BME280;52283;49.292;10.572;2023-05-19T03:58:59;97024.25;;;9.12;92.90
65614;BME280;52283;49.292;10.572;2023-05-19T04:01:26;97029.63;;;8.86;95.73
65614;BME280;52283;49.292;10.572;2023-05-19T04:03:53;97022.97;;;8.83;95.21
65614;BME280;52283;49.292;10.572;2023-05-19T04:06:19;97037.50;;;8.49;98.70
65614;BME280;52283;49.292;10.572;2023-05-19T04:08:46;97026.06;;;8.85;99.32
65614;BME280;52283;49.292;10.572;2023-05-19T04:11:12;97039.56;;;8.63;98.85
65614;BME280;52283;49.292;10.572;2023-05-19T04:13:39;97031.16;;;8.87;99.60
65614;BME280;52283;49.292;10.572;2023-05-19T04:16:06;97038.88;;;9.07;98.33
65614;BME280;52283;49.292;10.572;2023-05-19T04:18:34;97035.88;;;9.10;96.74
65614;BME280;52283;49.292;10.572;2023-05-19T04:21:00;97033.78;;;9.20;95.64
65614;BME280;52283;49.292;10.572;2023-05-19T04:23:27;97028.88;;;9.15;95.99
65614;BME280;52283;49.292;10.572;2023-05-19T04:25:53;97036.56;;;9.05;97.28
65614;BME280;52283;49.292;10.572;2023-05-19T04:28:21;97025.53;;;9.26;96.23
65614;BME280;52283;49.292;10.572;2023-05-19T04:30:48;97024.44;;;8.94;97.22
65614;BME280;52283;49.292;10.572;2023-05-19T04:33:15;97031.16;;;8.87;98.55
65614;BME280;52283;49.292;10.572;2023-05-19T04:35:43;97037.88;;;8.95;98.76
65614;BME280;52283;49.292;10.572;2023-05-19T04:38:09;97029.84;;;8.97;99.26
65614;BME280;52283;49.292;10.572;2023-05-19T04:40:36;97028.53;;;8.69;99.09
65614;BME280;52283;49.292;10.572;2023-05-19T04:43:04;97031.53;;;8.80;99.63
65614;BME280;52283;49.292;10.572;2023-05-19T04:45:31;97031.00;;;9.35;97.85
65614;BME280;52283;49.292;10.572;2023-05-19T04:47:58;97027.34;;;9.43;96.20
65614;BME280;52283;49.292;10.572;2023-05-19T04:50:24;97027.72;;;9.36;96.69
65614;BME280;52283;49.292;10.572;2023-05-19T04:52:54;97036.19;;;9.27;97.64
65614;BME280;52283;49.292;10.572;2023-05-19T04:55:20;97038.69;;;9.40;96.63
65614;BME280;52283;49.292;10.572;2023-05-19T04:57:47;97031.75;;;9.65;95.63
65614;BME280;52283;49.292;10.572;2023-05-19T05:00:14;97033.50;;;9.47;95.04
65614;BME280;52283;49.292;10.572;2023-05-19T05:02:41;97030.59;;;9.12;96.93
65614;BME280;52283;49.292;10.572;2023-05-19T05:05:08;97036.69;;;9.40;97.49
65614;BME280;52283;49.292;10.572;2023-05-19T05:07:34;97037.44;;;9.26;96.64
65614;BME280;52283;49.292;10.572;2023-05-19T05:10:03;97034.63;;;9.56;96.52
65614;BME280;52283;49.292;10.572;2023-05-19T05:12:30;97034.13;;;9.72;94.95
65614;BME280;52283;49.292;10.572;2023-05-19T05:14:57;97037.84;;;9.19;96.53
65614;BME280;52283;49.292;10.572;2023-05-19T05:17:24;97035.50;;;9.47;96.05
65614;BME280;52283;49.292;10.572;2023-05-19T05:19:51;97028.75;;;9.54;95.86
65614;BME280;52283;49.292;10.572;2023-05-19T05:22:18;97024.84;;;9.60;95.40
65614;BME280;52283;49.292;10.572;2023-05-19T05:24:45;97024.72;;;10.04;93.33
65614;BME280;52283;49.292;10.572;2023-05-19T05:27:13;97012.91;;;10.30;91.81
65614;BME280;52283;49.292;10.572;2023-05-19T05:29:40;97009.47;;;10.61;89.93
65614;BME280;52283;49.292;10.572;2023-05-19T05:32:06;97007.44;;;10.61;87.77
65614;BME280;52283;49.292;10.572;2023-05-19T05:34:33;97010.19;;;10.35;89.11
65614;BME280;52283;49.292;10.572;2023-05-19T05:37:02;97009.13;;;10.74;88.71
65614;BME280;52283;49.292;10.572;2023-05-19T05:39:28;97007.16;;;10.80;86.24
65614;BME280;52283;49.292;10.572;2023-05-19T05:41:56;97018.78;;;10.52;89.85
65614;BME280;52283;49.292;10.572;2023-05-19T05:44:23;97008.56;;;10.69;87.94
65614;BME280;52283;49.292;10.572;2023-05-19T05:46:50;97002.31;;;10.80;86.87
65614;BME280;52283;49.292;10.572;2023-05-19T05:49:17;97006.34;;;10.99;85.37
65614;BME280;52283;49.292;10.572;2023-05-19T05:51:44;97005.97;;;11.12;84.74
65614;BME280;52283;49.292;10.572;2023-05-19T05:54:11;96998.53;;;11.04;84.08
65614;BME280;52283;49.292;10.572;2023-05-19T05:56:38;97009.91;;;11.00;84.94
65614;BME280;52283;49.292;10.572;2023-05-19T05:59:05;96995.06;;;11.14;84.32
65614;BME280;52283;49.292;10.572;2023-05-19T06:01:33;96996.59;;;11.15;83.86
65614;BME280;52283;49.292;10.572;2023-05-19T06:04:00;96989.00;;;11.21;83.14
65614;BME280;52283;49.292;10.572;2023-05-19T06:06:27;96987.81;;;11.28;81.13
65614;BME280;52283;49.292;10.572;2023-05-19T06:08:53;96996.78;;;11.38;84.28
65614;BME280;52283;49.292;10.572;2023-05-19T06:11:20;96987.38;;;11.41;81.99
65614;BME280;52283;49.292;10.572;2023-05-19T06:13:46;96993.91;;;11.58;81.46
65614;BME280;52283;49.292;10.572;2023-05-19T06:16:13;96990.03;;;11.50;80.97
65614;BME280;52283;49.292;10.572;2023-05-19T06:18:40;96991.69;;;11.68;81.21
65614;BME280;52283;49.292;10.572;2023-05-19T06:21:09;96991.53;;;11.19;80.35
65614;BME280;52283;49.292;10.572;2023-05-19T06:23:38;97003.09;;;11.64;82.27
65614;BME280;52283;49.292;10.572;2023-05-19T06:26:05;96994.94;;;11.92;79.82
65614;BME280;52283;49.292;10.572;2023-05-19T06:28:31;96987.97;;;11.82;78.91
65614;BME280;52283;49.292;10.572;2023-05-19T06:30:58;97002.28;;;11.58;80.03
65614;BME280;52283;49.292;10.572;2023-05-19T06:33:24;96990.88;;;11.93;78.09
65614;BME280;52283;49.292;10.572;2023-05-19T06:35:52;96995.00;;;12.03;79.13
65614;BME280;52283;49.292;10.572;2023-05-19T06:38:19;97000.03;;;12.42;77.87
65614;BME280;52283;49.292;10.572;2023-05-19T06:40:45;96991.44;;;12.51;76.08
65614;BME280;52283;49.292;10.572;2023-05-19T06:43:12;96986.59;;;12.57;74.65
65614;BME280;52283;49.292;10.572;2023-05-19T06:45:38;96992.69;;;12.50;75.44
65614;BME280;52283;49.292;10.572;2023-05-19T06:48:05;96991.69;;;12.53;74.40
65614;BME280;52283;49.292;10.572;2023-05-19T06:50:31;96986.41;;;12.77;73.90
65614;BME280;52283;49.292;10.572;2023-05-19T06:52:59;96992.53;;;12.16;77.03
65614;BME280;52283;49.292;10.572;2023-05-19T06:55:26;96989.41;;;12.63;76.79
65614;BME280;52283;49.292;10.572;2023-05-19T06:57:52;96982.34;;;12.78;74.52
65614;BME280;52283;49.292;10.572;2023-05-19T07:00:18;96976.47;;;12.82;73.16
65614;BME280;52283;49.292;10.572;2023-05-19T07:02:45;96980.31;;;12.90;74.35
65614;BME280;52283;49.292;10.572;2023-05-19T07:05:11;96978.88;;;13.39;73.37
65614;BME280;52283;49.292;10.572;2023-05-19T07:07:38;96974.53;;;13.78;70.13
65614;BME280;52283;49.292;10.572;2023-05-19T07:10:08;96977.09;;;13.42;71.37
65614;BME280;52283;49.292;10.572;2023-05-19T07:12:34;96971.69;;;13.16;70.89
65614;BME280;52283;49.292;10.572;2023-05-19T07:15:01;96965.09;;;13.25;71.47
65614;BME280;52283;49.292;10.572;2023-05-19T07:17:27;96968.91;;;13.16;71.47
65614;BME280;52283;49.292;10.572;2023-05-19T07:19:53;96974.78;;;13.29;72.68
65614;BME280;52283;49.292;10.572;2023-05-19T07:22:20;96971.91;;;12.90;72.20
65614;BME280;52283;49.292;10.572;2023-05-19T07:24:48;96969.66;;;13.17;71.89
65614;BME280;52283;49.292;10.572;2023-05-19T07:27:16;96970.91;;;13.04;71.54
65614;BME280;52283;49.292;10.572;2023-05-19T07:29:43;96970.63;;;12.86;72.65
65614;BME280;52283;49.292;10.572;2023-05-19T07:32:09;96985.13;;;12.13;76.76
65614;BME280;52283;49.292;10.572;2023-05-19T07:34:36;96976.72;;;12.84;75.39
65614;BME280;52283;49.292;10.572;2023-05-19T07:37:02;96973.19;;;13.00;75.26
65614;BME280;52283;49.292;10.572;2023-05-19T07:39:32;96967.34;;;12.93;74.36
65614;BME280;52283;49.292;10.572;2023-05-19T07:41:58;96971.56;;;12.66;72.57
65614;BME280;52283;49.292;10.572;2023-05-19T07:44:26;96972.66;;;12.91;72.79
65614;BME280;52283;49.292;10.572;2023-05-19T07:46:55;96974.25;;;13.14;72.88
65614;BME280;52283;49.292;10.572;2023-05-19T07:49:22;96959.00;;;13.54;72.67
65614;BME280;52283;49.292;10.572;2023-05-19T07:51:48;96949.28;;;13.38;69.56
65614;BME280;52283;49.292;10.572;2023-05-19T07:54:15;96960.00;;;13.62;73.04
65614;BME280;52283;49.292;10.572;2023-05-19T07:56:41;96958.22;;;13.48;71.37
65614;BME280;52283;49.292;10.572;2023-05-19T07:59:08;96970.13;;;12.98;73.56
65614;BME280;52283;49.292;10.572;2023-05-19T08:01:36;96975.38;;;12.57;75.63
65614;BME280;52283;49.292;10.572;2023-05-19T08:04:02;96972.44;;;13.11;75.88
65614;BME280;52283;49.292;10.572;2023-05-19T08:06:28;96964.84;;;13.67;74.24
65614;BME280;52283;49.292;10.572;2023-05-19T08:08:56;96953.09;;;13.80;72.76
65614;BME280;52283;49.292;10.572;2023-05-19T08:11:22;96959.47;;;13.53;70.37
65614;BME280;52283;49.292;10.572;2023-05-19T08:13:49;96955.16;;;13.63;71.47
65614;BME280;52283;49.292;10.572;2023-05-19T08:16:15;96951.31;;;13.27;72.03
65614;BME280;52283;49.292;10.572;2023-05-19T08:18:43;96956.94;;;13.66;71.19
65614;BME280;52283;49.292;10.572;2023-05-19T08:21:10;96949.47;;;14.02;68.45
65614;BME280;52283;49.292;10.572;2023-05-19T08:23:36;96952.31;;;13.68;69.36
65614;BME280;52283;49.292;10.572;2023-05-19T08:26:03;96945.13;;;14.01;68.51
65614;BME280;52283;49.292;10.572;2023-05-19T08:28:30;96943.84;;;13.91;68.45
65614;BME280;52283;49.292;10.572;2023-05-19T08:30:56;96950.53;;;13.71;69.83
65614;BME280;52283;49.292;10.572;2023-05-19T08:33:22;96959.97;;;13.68;73.21
65614;BME280;52283;49.292;10.572;2023-05-19T08:35:50;96953.88;;;13.36;73.48
65614;BME280;52283;49.292;10.572;2023-05-19T08:38:17;96952.53;;;12.92;72.90
65614;BME280;52283;49.292;10.572;2023-05-19T08:40:45;96956.59;;;12.86;76.82
65614;BME280;52283;49.292;10.572;2023-05-19T08:43:12;96946.22;;;13.42;72.28
65614;BME280;52283;49.292;10.572;2023-05-19T08:45:40;96938.81;;;13.39;73.56
65614;BME280;52283;49.292;10.572;2023-05-19T08:48:08;96932.41;;;13.66;73.80
65614;BME280;52283;49.292;10.572;2023-05-19T08:50:39;96921.09;;;13.94;70.28
65614;BME280;52283;49.292;10.572;2023-05-19T08:53:11;96922.09;;;14.08;70.44
65614;BME280;52283;49.292;10.572;2023-05-19T08:55:41;96930.75;;;14.21;72.13
65614;BME280;52283;49.292;10.572;2023-05-19T08:58:10;96918.69;;;14.38;68.89
65614;BME280;52283;49.292;10.572;2023-05-19T09:00:37;96922.06;;;14.19;67.87
65614;BME280;52283;49.292;10.572;2023-05-19T09:03:04;96926.00;;;13.71;69.13
65614;BME280;52283;49.292;10.572;2023-05-19T09:05:31;96926.47;;;14.03;71.18
65614;BME280;52283;49.292;10.572;2023-05-19T09:07:58;96930.19;;;14.34;70.85
65614;BME280;52283;49.292;10.572;2023-05-19T09:10:28;96925.53;;;13.45;70.00
65614;BME280;52283;49.292;10.572;2023-05-19T09:12:55;96937.25;;;13.83;73.64
65614;BME280;52283;49.292;10.572;2023-05-19T09:15:25;96926.69;;;14.11;70.92
65614;BME280;52283;49.292;10.572;2023-05-19T09:18:04;96919.44;;;14.38;68.76
65614;BME280;52283;49.292;10.572;2023-05-19T09:20:31;96924.59;;;14.28;67.93
65614;BME280;52283;49.292;10.572;2023-05-19T09:22:58;96931.19;;;14.37;68.27
65614;BME280;52283;49.292;10.572;2023-05-19T09:25:25;96922.06;;;14.14;69.19
65614;BME280;52283;49.292;10.572;2023-05-19T09:27:54;96916.00;;;14.04;70.56
65614;BME280;52283;49.292;10.572;2023-05-19T09:30:22;96911.13;;;14.04;69.01
65614;BME280;52283;49.292;10.572;2023-05-19T09:32:50;96919.16;;;14.42;70.14
65614;BME280;52283;49.292;10.572;2023-05-19T09:35:17;96910.72;;;14.42;69.28
65614;BME280;52283;49.292;10.572;2023-05-19T09:37:44;96909.53;;;14.26;68.36
65614;BME280;52283;49.292;10.572;2023-05-19T09:40:13;96930.31;;;14.00;72.10
65614;BME280;52283;49.292;10.572;2023-05-19T09:42:40;96919.75;;;14.23;70.81
65614;BME280;52283;49.292;10.572;2023-05-19T09:45:09;96911.78;;;14.33;71.12
65614;BME280;52283;49.292;10.572;2023-05-19T09:47:37;96912.06;;;14.29;69.93
65614;BME280;52283;49.292;10.572;2023-05-19T09:50:04;96904.91;;;14.28;69.42
65614;BME280;52283;49.292;10.572;2023-05-19T09:52:36;96914.75;;;14.57;72.27
65614;BME280;52283;49.292;10.572;2023-05-19T09:55:12;96903.81;;;14.43;69.26
65614;BME280;52283;49.292;10.572;2023-05-19T09:57:39;96908.66;;;14.53;70.07
65614;BME280;52283;49.292;10.572;2023-05-19T10:00:07;96905.97;;;14.20;71.65
65614;BME280;52283;49.292;10.572;2023-05-19T10:02:42;96899.75;;;13.75;70.96
65614;BME280;52283;49.292;10.572;2023-05-19T10:05:10;96909.44;;;14.48;71.81
65614;BME280;52283;49.292;10.572;2023-05-19T10:07:39;96897.72;;;14.44;70.09
65614;BME280;52283;49.292;10.572;2023-05-19T10:10:08;96899.97;;;13.82;70.53
65614;BME280;52283;49.292;10.572;2023-05-19T10:12:37;96901.41;;;14.11;71.96
65614;BME280;52283;49.292;10.572;2023-05-19T10:15:06;96894.63;;;14.42;71.10
65614;BME280;52283;49.292;10.572;2023-05-19T10:17:43;96892.28;;;14.52;69.93
65614;BME280;52283;49.292;10.572;2023-05-19T10:20:11;96902.38;;;14.77;72.87
65614;BME280;52283;49.292;10.572;2023-05-19T10:22:39;96891.28;;;14.49;69.13
65614;BME280;52283;49.292;10.572;2023-05-19T10:25:07;96886.72;;;14.46;68.98
65614;BME280;52283;49.292;10.572;2023-05-19T10:27:35;96887.91;;;14.56;70.98
65614;BME280;52283;49.292;10.572;2023-05-19T10:30:07;96885.28;;;14.12;70.86
65614;BME280;52283;49.292;10.572;2023-05-19T10:32:36;96887.47;;;14.41;70.80
65614;BME280;52283;49.292;10.572;2023-05-19T10:35:26;96892.84;;;14.45;70.19
65614;BME280;52283;49.292;10.572;2023-05-19T10:37:58;96890.59;;;14.26;69.65
65614;BME280;52283;49.292;10.572;2023-05-19T10:40:31;96890.84;;;14.28;69.54
65614;BME280;52283;49.292;10.572;2023-05-19T10:43:12;96890.28;;;14.35;68.51
65614;BME280;52283;49.292;10.572;2023-05-19T10:45:45;96885.53;;;14.72;67.95
65614;BME280;52283;49.292;10.572;2023-05-19T10:48:13;96898.03;;;14.24;72.01
65614;BME280;52283;49.292;10.572;2023-05-19T10:50:42;96884.19;;;14.37;69.06
65614;BME280;52283;49.292;10.572;2023-05-19T10:53:13;96895.88;;;14.58;69.11
65614;BME280;52283;49.292;10.572;2023-05-19T10:55:46;96891.81;;;14.42;69.78
65614;BME280;52283;49.292;10.572;2023-05-19T10:58:13;96896.69;;;14.36;70.70
65614;BME280;52283;49.292;10.572;2023-05-19T11:00:39;96881.91;;;14.82;68.92
65614;BME280;52283;49.292;10.572;2023-05-19T11:03:13;96891.69;;;14.12;67.79
65614;BME280;52283;49.292;10.572;2023-05-19T11:05:41;96882.28;;;14.04;68.41
65614;BME280;52283;49.292;10.572;2023-05-19T11:08:10;96890.28;;;14.35;69.01
65614;BME280;52283;49.292;10.572;2023-05-19T11:10:37;96878.78;;;14.86;67.45
65614;BME280;52283;49.292;10.572;2023-05-19T11:13:04;96878.41;;;15.06;65.84
65614;BME280;52283;49.292;10.572;2023-05-19T11:15:33;96878.50;;;14.89;66.07
65614;BME280;52283;49.292;10.572;2023-05-19T11:18:01;96872.94;;;14.84;64.81
65614;BME280;52283;49.292;10.572;2023-05-19T11:20:29;96877.03;;;14.30;67.79
65614;BME280;52283;49.292;10.572;2023-05-19T11:23:07;96876.03;;;14.75;68.09
65614;BME280;52283;49.292;10.572;2023-05-19T11:25:42;96872.34;;;14.91;67.34
65614;BME280;52283;49.292;10.572;2023-05-19T11:28:10;96872.06;;;14.94;65.77
65614;BME280;52283;49.292;10.572;2023-05-19T11:30:40;96864.88;;;14.99;65.42
65614;BME280;52283;49.292;10.572;2023-05-19T11:33:07;96863.94;;;15.21;65.88
65614;BME280;52283;49.292;10.572;2023-05-19T11:35:35;96854.00;;;15.44;65.80
65614;BME280;52283;49.292;10.572;2023-05-19T11:38:02;96830.44;;;15.72;60.94
65614;BME280;52283;49.292;10.572;2023-05-19T11:40:29;96846.31;;;15.94;62.42
65614;BME280;52283;49.292;10.572;2023-05-19T11:42:56;96827.41;;;16.32;59.64
65614;BME280;52283;49.292;10.572;2023-05-19T11:45:23;96833.00;;;15.45;61.66
65614;BME280;52283;49.292;10.572;2023-05-19T11:47:51;96844.47;;;15.77;63.51
65614;BME280;52283;49.292;10.572;2023-05-19T11:50:17;96839.50;;;15.05;63.25
65614;BME280;52283;49.292;10.572;2023-05-19T11:52:44;96835.66;;;15.87;61.47
65614;BME280;52283;49.292;10.572;2023-05-19T11:55:14;96837.97;;;15.58;61.99
65614;BME280;52283;49.292;10.572;2023-05-19T11:57:49;96840.31;;;15.84;61.19
65614;BME280;52283;49.292;10.572;2023-05-19T12:00:16;96817.25;;;17.12;59.06
65614;BME280;52283;49.292;10.572;2023-05-19T12:02:43;96833.19;;;16.39;58.68
65614;BME280;52283;49.292;10.572;2023-05-19T12:05:17;96838.50;;;16.05;59.62
65614;BME280;52283;49.292;10.572;2023-05-19T12:07:43;96844.53;;;16.34;63.18
65614;BME280;52283;49.292;10.572;2023-05-19T12:10:11;96827.47;;;16.26;59.75
65614;BME280;52283;49.292;10.572;2023-05-19T12:12:38;96826.16;;;16.65;58.99
65614;BME280;52283;49.292;10.572;2023-05-19T12:15:08;96828.41;;;16.72;58.53
65614;BME280;52283;49.292;10.572;2023-05-19T12:17:34;96828.53;;;16.61;58.00
65614;BME280;52283;49.292;10.572;2023-05-19T12:20:01;96816.78;;;16.75;58.46
65614;BME280;52283;49.292;10.572;2023-05-19T12:22:29;96820.47;;;16.70;57.96
65614;BME280;52283;49.292;10.572;2023-05-19T12:24:55;96815.88;;;16.49;57.69
65614;BME280;52283;49.292;10.572;2023-05-19T12:27:23;96809.75;;;17.27;57.92
65614;BME280;52283;49.292;10.572;2023-05-19T12:29:51;96806.72;;;16.80;57.87
65614;BME280;52283;49.292;10.572;2023-05-19T12:32:22;96814.81;;;16.14;59.55
65614;BME280;52283;49.292;10.572;2023-05-19T12:34:50;96796.31;;;16.88;56.60
65614;BME280;52283;49.292;10.572;2023-05-19T12:37:16;96796.69;;;17.96;56.17
65614;BME280;52283;49.292;10.572;2023-05-19T12:39:43;96794.09;;;16.68;56.97
65614;BME280;52283;49.292;10.572;2023-05-19T12:42:11;96780.88;;;17.48;55.92
65614;BME280;52283;49.292;10.572;2023-05-19T12:44:37;96797.03;;;17.21;55.80
65614;BME280;52283;49.292;10.572;2023-05-19T12:47:07;96787.75;;;18.05;54.97
65614;BME280;52283;49.292;10.572;2023-05-19T12:49:35;96803.59;;;17.42;57.52
65614;BME280;52283;49.292;10.572;2023-05-19T12:52:02;96786.66;;;17.55;55.04
65614;BME280;52283;49.292;10.572;2023-05-19T12:54:31;96780.44;;;17.44;55.80
65614;BME280;52283;49.292;10.572;2023-05-19T12:56:58;96785.88;;;17.28;56.43
65614;BME280;52283;49.292;10.572;2023-05-19T12:59:25;96782.75;;;17.58;55.76